createdAt,value
2017-11-27T00:00:53.569Z,4.70
2017-11-27T00:03:21.126Z,4.60
2017-11-27T00:05:49.219Z,4.70
2017-11-27T00:08:16.706Z,4.60
2017-11-27T00:10:44.241Z,4.60
2017-11-27T00:13:11.720Z,4.60
2017-11-27T00:15:39.173Z,4.60
2017-11-27T00:18:06.654Z,4.60
2017-11-27T00:20:34.165Z,4.60
2017-11-27T00:23:01.803Z,4.60
2017-11-27T00:25:29.258Z,4.60
2017-11-27T00:27:56.754Z,4.70
2017-11-27T00:30:24.223Z,4.70
2017-11-27T00:32:51.808Z,4.70
2017-11-27T00:35:20.054Z,4.70
2017-11-27T00:37:47.520Z,4.70
2017-11-27T00:40:15.782Z,4.70
2017-11-27T00:42:43.240Z,4.70
2017-11-27T00:45:10.717Z,4.80
2017-11-27T00:47:39.085Z,4.80
2017-11-27T00:50:07.518Z,4.80
2017-11-27T00:52:34.977Z,4.70
2017-11-27T00:55:02.466Z,4.70
2017-11-27T00:57:29.928Z,4.80
2017-11-27T00:59:57.401Z,4.80
2017-11-27T01:02:25.638Z,4.80
2017-11-27T01:04:53.132Z,4.80
2017-11-27T01:07:21.390Z,4.70
2017-11-27T01:09:49.662Z,4.80
2017-11-27T01:12:17.356Z,4.70
2017-11-27T01:14:44.810Z,4.80
2017-11-27T01:17:12.293Z,4.80
2017-11-27T01:19:39.781Z,4.80
2017-11-27T01:22:07.251Z,4.80
2017-11-27T01:24:34.706Z,4.80
2017-11-27T01:27:02.176Z,4.70
2017-11-27T01:29:30.498Z,4.70
2017-11-27T01:31:58.052Z,4.70
2017-11-27T01:34:25.522Z,4.70
2017-11-27T01:36:52.989Z,4.70
2017-11-27T01:39:20.447Z,4.70
2017-11-27T01:41:47.936Z,4.70
2017-11-27T01:44:15.399Z,4.70
2017-11-27T01:46:43.615Z,4.70
2017-11-27T01:49:11.087Z,4.70
2017-11-27T01:51:38.605Z,4.80
2017-11-27T01:54:06.131Z,4.80
2017-11-27T01:56:34.455Z,4.80
2017-11-27T01:59:01.925Z,4.80
2017-11-27T02:01:29.375Z,4.80
2017-11-27T02:03:56.850Z,4.80
2017-11-27T02:06:24.367Z,4.80
2017-11-27T02:08:52.733Z,4.80
2017-11-27T02:11:20.966Z,4.80
2017-11-27T02:13:48.445Z,4.80
2017-11-27T02:16:15.957Z,4.80
2017-11-27T02:18:43.527Z,4.90
2017-11-27T02:21:11.003Z,4.80
2017-11-27T02:23:38.470Z,4.80
2017-11-27T02:26:05.963Z,4.80
2017-11-27T02:28:34.273Z,4.80
2017-11-27T02:31:01.892Z,4.80
2017-11-27T02:33:30.126Z,4.90
2017-11-27T02:35:57.712Z,4.80
2017-11-27T02:38:25.172Z,4.90
2017-11-27T02:40:52.643Z,4.90
2017-11-27T02:43:20.891Z,4.90
2017-11-27T02:45:48.359Z,4.90
2017-11-27T02:48:15.866Z,4.90
2017-11-27T02:50:43.334Z,5.00
2017-11-27T02:53:10.802Z,4.90
2017-11-27T02:55:38.265Z,4.90
2017-11-27T02:58:05.865Z,4.90
2017-11-27T03:00:34.101Z,4.90
2017-11-27T03:03:01.740Z,4.90
2017-11-27T03:05:29.229Z,4.90
2017-11-27T03:07:57.166Z,4.90
2017-11-27T03:10:24.652Z,4.90
2017-11-27T03:12:52.126Z,4.90
2017-11-27T03:15:20.424Z,4.90
2017-11-27T03:17:48.643Z,4.80
2017-11-27T03:20:16.111Z,4.80
2017-11-27T03:22:43.582Z,4.80
2017-11-27T03:25:11.166Z,4.80
2017-11-27T03:27:39.390Z,4.70
2017-11-27T03:30:06.943Z,4.70
2017-11-27T03:32:34.402Z,4.70
2017-11-27T03:35:01.948Z,4.70
2017-11-27T03:37:29.417Z,4.70
2017-11-27T03:39:56.885Z,4.70
2017-11-27T03:42:24.462Z,4.70
2017-11-27T03:44:51.926Z,4.70
2017-11-27T03:47:20.332Z,4.60
2017-11-27T03:49:47.809Z,4.60
2017-11-27T03:52:15.275Z,4.60
2017-11-27T03:54:42.739Z,4.60
2017-11-27T03:57:10.261Z,4.60
2017-11-27T03:59:37.721Z,4.60
2017-11-27T04:02:05.210Z,4.70
2017-11-27T04:04:32.690Z,4.70
2017-11-27T04:07:00.158Z,4.70
2017-11-27T04:09:27.613Z,4.70
2017-11-27T04:11:55.079Z,4.60
2017-11-27T04:14:23.333Z,4.60
2017-11-27T04:16:50.808Z,4.60
2017-11-27T04:19:18.291Z,4.70
2017-11-27T04:21:45.754Z,4.70
2017-11-27T04:24:13.224Z,4.70
2017-11-27T04:26:40.833Z,4.70
2017-11-27T04:29:08.295Z,4.70
2017-11-27T04:31:35.766Z,4.70
2017-11-27T04:34:03.995Z,4.70
2017-11-27T04:36:31.474Z,4.70
2017-11-27T04:38:59.139Z,4.70
2017-11-27T04:41:26.805Z,4.70
2017-11-27T04:43:54.255Z,4.70
2017-11-27T04:46:21.732Z,4.80
2017-11-27T04:48:49.946Z,4.80
2017-11-27T04:51:17.406Z,4.80
2017-11-27T04:53:44.895Z,4.80
2017-11-27T04:56:12.370Z,4.80
2017-11-27T04:58:40.639Z,4.80
2017-11-27T05:01:08.088Z,4.80
2017-11-27T05:03:35.575Z,4.80
2017-11-27T05:06:03.813Z,4.90
2017-11-27T05:08:31.285Z,4.90
2017-11-27T05:10:59.522Z,4.90
2017-11-27T05:13:27.027Z,4.90
2017-11-27T05:15:55.392Z,4.90
2017-11-27T05:18:22.910Z,4.90
2017-11-27T05:20:50.398Z,5.00
2017-11-27T05:23:17.868Z,5.00
2017-11-27T05:25:45.333Z,5.00
2017-11-27T05:28:14.197Z,5.10
2017-11-27T05:30:41.681Z,5.10
2017-11-27T05:33:09.903Z,5.10
2017-11-27T05:35:37.357Z,5.10
2017-11-27T05:38:04.829Z,5.20
2017-11-27T05:40:32.419Z,5.20
2017-11-27T05:42:59.947Z,5.20
2017-11-27T05:45:27.483Z,5.20
2017-11-27T05:47:55.092Z,5.20
2017-11-27T05:50:22.659Z,5.20
2017-11-27T05:52:51.080Z,5.30
2017-11-27T05:55:18.648Z,5.30
2017-11-27T05:57:46.165Z,5.30
2017-11-27T06:00:14.418Z,5.30
2017-11-27T06:02:41.882Z,5.30
2017-11-27T06:05:09.344Z,5.30
2017-11-27T06:07:37.634Z,5.40
2017-11-27T06:10:05.099Z,5.40
2017-11-27T06:12:32.577Z,5.40
2017-11-27T06:15:00.045Z,5.40
2017-11-27T06:17:27.534Z,5.50
2017-11-27T06:19:55.134Z,5.50
2017-11-27T06:24:58.097Z,5.50
2017-11-27T06:27:25.836Z,5.50
2017-11-27T06:29:53.319Z,5.60
2017-11-27T06:32:20.775Z,5.60
2017-11-27T06:34:48.246Z,5.60
2017-11-27T06:37:16.489Z,5.70
2017-11-27T06:39:43.956Z,5.70
2017-11-27T06:42:11.430Z,5.70
2017-11-27T06:44:39.676Z,5.80
2017-11-27T06:47:07.156Z,5.70
2017-11-27T06:49:34.637Z,5.70
2017-11-27T06:52:02.880Z,5.70
2017-11-27T06:54:30.505Z,5.70
2017-11-27T06:56:57.989Z,5.80
2017-11-27T06:59:25.504Z,5.80
2017-11-27T07:01:53.039Z,5.80
2017-11-27T07:04:21.305Z,5.90
2017-11-27T07:06:49.528Z,5.90
2017-11-27T07:09:17.148Z,5.90
2017-11-27T07:11:45.384Z,5.90
2017-11-27T07:14:12.882Z,5.90
2017-11-27T07:16:41.113Z,5.90
2017-11-27T07:19:08.598Z,5.90
2017-11-27T07:21:36.074Z,5.90
2017-11-27T07:24:04.413Z,5.90
2017-11-27T07:26:31.895Z,5.90
2017-11-27T07:29:00.181Z,5.90
2017-11-27T07:31:28.415Z,5.90
2017-11-27T07:33:55.893Z,5.90
2017-11-27T07:36:23.361Z,5.80
2017-11-27T07:38:57.277Z,5.90
2017-11-27T07:41:25.554Z,6.00
2017-11-27T07:43:53.020Z,6.00
2017-11-27T07:46:20.493Z,6.00
2017-11-27T07:48:47.961Z,5.90
2017-11-27T07:51:15.451Z,5.90
2017-11-27T07:53:43.231Z,5.80
2017-11-27T07:56:11.477Z,5.70
2017-11-27T07:58:39.214Z,5.70
2017-11-27T08:01:06.688Z,5.80
2017-11-27T08:03:34.147Z,5.80
2017-11-27T08:06:01.614Z,5.80
2017-11-27T08:08:29.161Z,5.80
2017-11-27T08:10:56.729Z,5.80
2017-11-27T08:13:24.230Z,5.80
2017-11-27T08:15:52.462Z,5.80
2017-11-27T08:18:19.980Z,5.80
2017-11-27T08:20:47.457Z,5.90
2017-11-27T08:23:14.933Z,5.90
2017-11-27T08:25:43.202Z,5.90
2017-11-27T08:28:10.694Z,5.90
2017-11-27T08:30:38.179Z,5.90
2017-11-27T08:33:05.658Z,5.90
2017-11-27T08:35:33.111Z,6.00
2017-11-27T08:38:00.571Z,6.00
2017-11-27T08:40:28.053Z,6.00
2017-11-27T08:42:55.624Z,6.00
2017-11-27T08:45:24.342Z,6.00
2017-11-27T08:47:52.587Z,6.10
2017-11-27T08:50:20.061Z,6.00
2017-11-27T08:52:48.277Z,6.10
2017-11-27T08:55:15.730Z,6.10
2017-11-27T08:57:43.203Z,6.10
2017-11-27T09:00:10.734Z,6.20
2017-11-27T09:02:38.207Z,6.10
2017-11-27T09:05:07.118Z,6.20
2017-11-27T09:07:34.606Z,6.20
2017-11-27T09:10:02.079Z,6.20
2017-11-27T09:12:30.336Z,6.20
2017-11-27T09:14:57.888Z,6.20
2017-11-27T09:17:25.354Z,6.30
2017-11-27T09:19:53.585Z,6.30
2017-11-27T09:22:21.094Z,6.30
2017-11-27T09:24:49.344Z,6.30
2017-11-27T09:27:16.797Z,6.30
2017-11-27T09:29:44.255Z,6.30
2017-11-27T09:32:11.722Z,6.40
2017-11-27T09:34:39.194Z,6.40
2017-11-27T09:37:06.660Z,6.40
2017-11-27T09:39:34.899Z,6.40
2017-11-27T09:42:02.369Z,6.40
2017-11-27T09:44:29.834Z,6.50
2017-11-27T09:46:57.478Z,6.50
2017-11-27T09:49:24.949Z,6.50
2017-11-27T09:51:52.425Z,6.50
2017-11-27T09:54:20.677Z,6.60
2017-11-27T09:56:48.157Z,6.60
2017-11-27T09:59:16.391Z,6.60
2017-11-27T10:01:43.868Z,6.60
2017-11-27T10:04:11.385Z,6.60
2017-11-27T10:06:38.850Z,6.60
2017-11-27T10:09:06.315Z,6.60
2017-11-27T10:11:33.906Z,6.60
2017-11-27T10:14:02.153Z,6.60
2017-11-27T10:16:29.616Z,6.60
2017-11-27T10:18:57.094Z,6.60
2017-11-27T10:21:24.562Z,6.60
2017-11-27T10:23:52.821Z,6.70
2017-11-27T10:26:20.247Z,6.70
2017-11-27T10:28:47.735Z,6.70
2017-11-27T10:31:15.185Z,6.70
2017-11-27T10:33:42.656Z,6.70
2017-11-27T10:36:10.126Z,6.70
2017-11-27T10:38:38.538Z,6.80
2017-11-27T10:41:06.018Z,6.80
2017-11-27T10:43:33.499Z,6.80
2017-11-27T10:46:00.974Z,6.80
2017-11-27T10:48:29.184Z,6.80
2017-11-27T10:50:56.672Z,6.80
2017-11-27T10:53:24.141Z,6.80
2017-11-27T10:55:51.596Z,6.80
2017-11-27T10:58:19.160Z,6.80
2017-11-27T11:00:52.250Z,6.80
2017-11-27T11:03:19.742Z,6.80
2017-11-27T11:05:47.216Z,6.80
2017-11-27T11:08:14.677Z,6.80
2017-11-27T11:10:42.161Z,6.80
2017-11-27T11:13:09.641Z,6.80
2017-11-27T11:15:37.110Z,6.80
2017-11-27T11:18:05.356Z,6.90
2017-11-27T11:20:32.830Z,6.80
2017-11-27T11:23:00.378Z,6.90
2017-11-27T11:25:27.874Z,6.90
2017-11-27T11:27:55.356Z,6.90
2017-11-27T11:30:22.830Z,6.90
2017-11-27T11:32:50.907Z,6.90
2017-11-27T11:35:18.372Z,6.90
2017-11-27T11:37:45.833Z,6.90
2017-11-27T11:40:13.401Z,6.90
2017-11-27T11:42:40.910Z,6.90
2017-11-27T11:45:08.373Z,6.90
2017-11-27T11:47:35.829Z,6.90
2017-11-27T11:50:03.290Z,6.90
2017-11-27T11:52:30.741Z,6.90
2017-11-27T11:54:58.212Z,6.90
2017-11-27T11:57:25.809Z,6.90
2017-11-27T11:59:54.041Z,7.00
2017-11-27T12:02:21.527Z,7.00
2017-11-27T12:04:48.966Z,7.00
2017-11-27T12:07:17.135Z,7.00
2017-11-27T12:09:44.650Z,7.00
2017-11-27T12:12:12.115Z,7.00
2017-11-27T12:14:39.577Z,7.00
2017-11-27T12:17:07.041Z,7.00
2017-11-27T12:19:34.550Z,7.00
2017-11-27T12:22:02.008Z,7.00
2017-11-27T12:24:29.511Z,7.00
2017-11-27T12:26:56.970Z,7.00
2017-11-27T12:29:24.445Z,7.00
2017-11-27T12:31:51.914Z,7.00
2017-11-27T12:34:19.371Z,7.00
2017-11-27T12:36:46.856Z,7.00
2017-11-27T12:39:14.358Z,7.00
2017-11-27T12:41:41.829Z,7.00
2017-11-27T12:44:09.291Z,7.00
2017-11-27T12:46:36.804Z,7.00
2017-11-27T12:49:04.264Z,7.00
2017-11-27T12:51:31.716Z,7.10
2017-11-27T12:53:59.191Z,7.10
2017-11-27T12:56:26.671Z,7.10
2017-11-27T12:58:54.126Z,7.10
2017-11-27T13:01:21.605Z,7.20
2017-11-27T13:03:49.106Z,7.20
2017-11-27T13:06:16.575Z,7.20
2017-11-27T13:08:44.041Z,7.20
2017-11-27T13:11:11.502Z,7.20
2017-11-27T13:13:38.970Z,7.20
2017-11-27T13:16:06.432Z,7.20
2017-11-27T13:18:33.901Z,7.30
2017-11-27T13:21:01.377Z,7.30
2017-11-27T13:23:29.017Z,7.30
2017-11-27T13:25:56.481Z,7.40
2017-11-27T13:28:23.965Z,7.40
2017-11-27T13:30:52.193Z,7.40
2017-11-27T13:33:19.673Z,7.30
2017-11-27T13:35:47.904Z,7.40
2017-11-27T13:38:15.375Z,7.40
2017-11-27T13:40:42.843Z,7.40
2017-11-27T13:43:10.302Z,7.40
2017-11-27T13:45:37.782Z,7.40
2017-11-27T13:48:05.248Z,7.40
2017-11-27T13:50:33.477Z,7.40
2017-11-27T13:53:01.075Z,7.40
2017-11-27T13:55:28.561Z,7.40
2017-11-27T13:57:56.032Z,7.40
2017-11-27T14:00:23.492Z,7.40
2017-11-27T14:02:51.070Z,7.40
2017-11-27T14:05:18.531Z,7.40
2017-11-27T14:07:46.005Z,7.40
2017-11-27T14:10:13.561Z,7.50
2017-11-27T14:12:41.142Z,7.50
2017-11-27T14:15:09.482Z,7.50
2017-11-27T14:17:36.968Z,7.50
2017-11-27T14:20:04.486Z,7.50
2017-11-27T14:22:32.058Z,7.50
2017-11-27T14:24:59.521Z,7.50
2017-11-27T14:27:27.000Z,7.50
2017-11-27T14:29:54.489Z,7.40
2017-11-27T14:32:22.723Z,7.40
2017-11-27T14:34:50.284Z,7.40
2017-11-27T14:37:17.733Z,7.50
2017-11-27T14:39:45.971Z,7.50
2017-11-27T14:42:13.429Z,7.50
2017-11-27T14:44:40.946Z,7.50
2017-11-27T14:47:09.195Z,7.60
2017-11-27T14:49:36.658Z,7.60
2017-11-27T14:52:05.066Z,7.60
2017-11-27T14:54:33.307Z,7.50
2017-11-27T14:57:00.767Z,7.50
2017-11-27T14:59:28.237Z,7.50
2017-11-27T15:01:56.479Z,7.50
2017-11-27T15:04:23.964Z,7.50
2017-11-27T15:06:51.405Z,7.50
2017-11-27T15:09:18.891Z,7.50
2017-11-27T15:11:46.358Z,7.50
2017-11-27T15:14:14.596Z,7.50
2017-11-27T15:16:42.089Z,7.50
2017-11-27T15:19:10.328Z,7.60
2017-11-27T15:21:38.301Z,7.50
2017-11-27T15:24:05.798Z,7.60
2017-11-27T15:26:35.530Z,7.60
2017-11-27T15:29:02.990Z,7.60
2017-11-27T15:31:30.448Z,7.60
2017-11-27T15:33:57.903Z,7.60
2017-11-27T15:36:25.365Z,7.70
2017-11-27T15:38:52.860Z,7.70
2017-11-27T15:41:20.351Z,7.70
2017-11-27T15:43:48.598Z,7.70
2017-11-27T15:46:16.066Z,7.60
2017-11-27T15:48:44.315Z,7.70
2017-11-27T15:51:11.787Z,7.70
2017-11-27T15:53:39.258Z,7.70
2017-11-27T15:56:07.537Z,7.70
2017-11-27T15:58:35.863Z,7.70
2017-11-27T16:01:03.329Z,7.70
2017-11-27T16:03:30.798Z,7.70
2017-11-27T16:05:58.266Z,7.70
2017-11-27T16:08:25.750Z,7.80
2017-11-27T16:10:53.207Z,7.80
2017-11-27T16:13:20.670Z,7.80
2017-11-27T16:15:48.322Z,7.80
2017-11-27T16:18:16.557Z,7.80
2017-11-27T16:20:44.022Z,7.80
2017-11-27T16:23:11.475Z,7.80
2017-11-27T16:25:38.939Z,7.80
2017-11-27T16:28:07.179Z,7.80
2017-11-27T16:30:34.654Z,7.80
2017-11-27T16:33:02.974Z,7.80
2017-11-27T16:35:31.211Z,7.80
2017-11-27T16:37:58.786Z,7.70
2017-11-27T16:40:26.266Z,7.80
2017-11-27T16:42:53.724Z,7.80
2017-11-27T16:45:21.219Z,7.80
2017-11-27T16:47:48.673Z,7.80
2017-11-27T16:50:16.150Z,7.80
2017-11-27T16:52:43.631Z,7.90
2017-11-27T16:55:11.882Z,7.90
2017-11-27T16:57:39.334Z,7.90
2017-11-27T17:00:06.807Z,7.90
2017-11-27T17:02:34.305Z,7.90
2017-11-27T17:05:02.545Z,7.80
2017-11-27T17:07:30.031Z,7.80
2017-11-27T17:09:58.279Z,7.80
2017-11-27T17:12:26.522Z,7.80
2017-11-27T17:14:54.214Z,7.80
2017-11-27T17:17:21.683Z,7.80
2017-11-27T17:19:49.922Z,7.70
2017-11-27T17:22:17.367Z,7.70
2017-11-27T17:24:44.857Z,7.60
2017-11-27T17:27:12.306Z,7.60
2017-11-27T17:29:39.773Z,7.60
2017-11-27T17:32:07.279Z,7.70
2017-11-27T17:34:34.767Z,7.60
2017-11-27T17:37:02.223Z,7.60
2017-11-27T17:39:29.706Z,7.60
2017-11-27T17:41:57.190Z,7.60
2017-11-27T17:44:24.939Z,7.60
2017-11-27T17:46:53.477Z,7.60
2017-11-27T17:49:20.947Z,7.60
2017-11-27T17:51:48.471Z,7.60
2017-11-27T17:54:15.963Z,7.60
2017-11-27T17:56:44.312Z,7.60
2017-11-27T17:59:11.770Z,7.70
2017-11-27T18:01:39.428Z,7.70
2017-11-27T18:04:06.887Z,7.70
2017-11-27T18:06:34.378Z,7.80
2017-11-27T18:09:01.844Z,7.80
2017-11-27T18:11:29.319Z,7.90
2017-11-27T18:13:57.565Z,8.00
2017-11-27T18:16:25.025Z,8.00
2017-11-27T18:18:52.485Z,8.00
2017-11-27T18:21:20.064Z,8.00
2017-11-27T18:23:48.315Z,8.10
2017-11-27T18:26:15.899Z,8.10
2017-11-27T18:28:44.163Z,8.20
2017-11-27T18:31:11.629Z,8.20
2017-11-27T18:33:39.871Z,8.20
2017-11-27T18:36:07.402Z,8.20
2017-11-27T18:38:34.878Z,8.20
2017-11-27T18:41:02.341Z,8.20
2017-11-27T18:43:29.792Z,8.20
2017-11-27T18:45:57.264Z,8.20
2017-11-27T18:48:24.721Z,8.20
2017-11-27T18:50:52.189Z,8.30
2017-11-27T18:53:19.679Z,8.30
2017-11-27T18:55:47.137Z,8.30
2017-11-27T18:58:14.588Z,8.30
2017-11-27T19:00:42.217Z,8.30
2017-11-27T19:03:09.672Z,8.30
2017-11-27T19:05:37.203Z,8.30
2017-11-27T19:08:04.658Z,8.30
2017-11-27T19:10:32.128Z,8.30
2017-11-27T19:12:59.622Z,8.30
2017-11-27T19:15:27.847Z,8.30
2017-11-27T19:17:55.318Z,8.30
2017-11-27T19:20:22.788Z,8.20
2017-11-27T19:22:50.255Z,8.20
2017-11-27T19:25:17.963Z,8.20
2017-11-27T19:27:45.429Z,8.20
2017-11-27T19:30:12.886Z,8.20
2017-11-27T19:32:40.444Z,8.20
2017-11-27T19:35:07.944Z,8.10
2017-11-27T19:37:35.388Z,8.10
2017-11-27T19:40:02.978Z,8.20
2017-11-27T19:42:31.222Z,8.20
2017-11-27T19:44:58.780Z,8.20
2017-11-27T19:47:26.238Z,8.20
2017-11-27T19:49:53.862Z,8.20
2017-11-27T19:52:21.327Z,8.30
2017-11-27T19:54:48.886Z,8.30
2017-11-27T19:57:16.353Z,8.30
2017-11-27T19:59:43.809Z,8.30
2017-11-27T20:02:11.274Z,8.40
2017-11-27T20:04:38.737Z,8.40
2017-11-27T20:07:06.338Z,8.40
2017-11-27T20:09:34.580Z,8.40
2017-11-27T20:12:02.053Z,8.40
2017-11-27T20:14:29.511Z,8.50
2017-11-27T20:16:56.991Z,8.40
2017-11-27T20:19:25.314Z,8.40
2017-11-27T20:21:52.795Z,8.40
2017-11-27T20:24:20.266Z,8.40
2017-11-27T20:26:48.489Z,8.30
2017-11-27T20:29:16.062Z,8.30
2017-11-27T20:31:44.975Z,8.40
2017-11-27T20:34:12.432Z,8.40
2017-11-27T20:36:39.901Z,8.30
2017-11-27T20:39:08.165Z,8.40
2017-11-27T20:41:35.785Z,8.40
2017-11-27T20:44:03.261Z,8.40
2017-11-27T20:46:30.729Z,8.40
2017-11-27T20:48:58.310Z,8.40
2017-11-27T20:51:27.009Z,8.40
2017-11-27T20:53:54.485Z,8.40
2017-11-27T20:56:21.944Z,8.40
2017-11-27T20:58:49.461Z,8.40
2017-11-27T21:01:16.928Z,8.40
2017-11-27T21:03:45.170Z,8.40
2017-11-27T21:06:12.619Z,8.40
2017-11-27T21:08:40.160Z,8.40
2017-11-27T21:11:07.622Z,8.30
2017-11-27T21:13:35.093Z,8.30
2017-11-27T21:16:02.554Z,8.30
2017-11-27T21:18:30.019Z,8.40
2017-11-27T21:20:57.492Z,8.40
2017-11-27T21:23:24.965Z,8.40
2017-11-27T21:25:53.185Z,8.50
2017-11-27T21:28:20.689Z,8.40
2017-11-27T21:30:48.915Z,8.50
2017-11-27T21:33:16.471Z,8.50
2017-11-27T21:35:43.936Z,8.60
2017-11-27T21:38:11.417Z,8.40
2017-11-27T21:40:38.895Z,8.00
2017-11-27T21:43:07.131Z,7.40
2017-11-27T21:45:34.642Z,7.50
2017-11-27T21:48:02.159Z,7.30
2017-11-27T21:50:29.650Z,7.20
2017-11-27T21:52:57.862Z,7.10
2017-11-27T21:55:25.338Z,7.10
2017-11-27T21:57:52.793Z,7.20
2017-11-27T22:00:20.802Z,7.20
2017-11-27T22:02:49.198Z,7.10
2017-11-27T22:05:16.654Z,7.10
2017-11-27T22:07:44.129Z,7.10
2017-11-27T22:10:11.585Z,7.10
2017-11-27T22:12:39.109Z,7.10
2017-11-27T22:15:07.344Z,7.10
2017-11-27T22:17:34.810Z,7.10
2017-11-27T22:20:02.277Z,7.10
2017-11-27T22:22:29.856Z,7.10
2017-11-27T22:24:58.133Z,7.00
2017-11-27T22:27:26.350Z,7.10
2017-11-27T22:29:53.822Z,7.10
2017-11-27T22:32:21.289Z,7.10
2017-11-27T22:34:48.770Z,7.10
2017-11-27T22:37:16.228Z,7.10
2017-11-27T22:39:44.483Z,7.10
2017-11-27T22:42:11.940Z,7.10
2017-11-27T22:44:39.413Z,7.00
2017-11-27T22:47:07.759Z,7.00
2017-11-27T22:49:35.248Z,7.10
2017-11-27T22:52:03.475Z,7.00
2017-11-27T22:54:31.027Z,6.90
2017-11-27T22:56:58.486Z,6.90
2017-11-27T22:59:25.959Z,6.90
2017-11-27T23:01:53.427Z,6.80
2017-11-27T23:04:20.904Z,6.80
2017-11-27T23:06:48.487Z,6.70
2017-11-27T23:09:16.725Z,6.70
2017-11-27T23:11:45.689Z,6.60
2017-11-27T23:14:13.160Z,6.60
2017-11-27T23:16:40.630Z,6.60
2017-11-27T23:19:08.097Z,6.70
2017-11-27T23:21:35.570Z,6.60
2017-11-27T23:24:03.797Z,6.60
2017-11-27T23:26:31.372Z,6.60
2017-11-27T23:28:58.839Z,6.70
2017-11-27T23:31:26.298Z,6.70
2017-11-27T23:33:53.765Z,6.60
2017-11-27T23:36:22.007Z,6.60
2017-11-27T23:38:49.514Z,6.60
2017-11-27T23:41:17.734Z,6.50
2017-11-27T23:43:45.201Z,6.50
2017-11-27T23:46:12.659Z,6.50
2017-11-27T23:48:40.123Z,6.50
2017-11-27T23:51:07.566Z,6.50
2017-11-27T23:53:35.098Z,6.50
2017-11-27T23:56:02.559Z,6.50
2017-11-27T23:58:30.023Z,6.40
